This is the latest recevied weather packets stored in our database for station/object SA7BGG-5. If no packets are shown the sender has not sent any weather packets the latest 10 day(s).
| Time | Temp. | Humidity | Pressure | Rain* | Wind** | Luminosity | Snow |
|---|---|---|---|---|---|---|---|
| 1777366801 | 11.67° C | 48% | 1032 hPa | - | - | - | - |
| 1777366501 | 11.67° C | 45% | 1032 hPa | - | - | - | - |
| 1777366200 | 11.67° C | 45% | 1032 hPa | - | - | - | - |
| 1777365905 | 11.11° C | 51% | 1032 hPa | - | - | - | - |
| 1777365604 | 11.11° C | 51% | 1032 hPa | - | - | - | - |
| 1777365304 | 10.56° C | 52% | 1032 hPa | - | - | - | - |
| 1777365004 | 10.56° C | 52% | 1032 hPa | - | - | - | - |
| 1777364703 | 10° C | 54% | 1032 hPa | - | - | - | - |
| 1777364403 | 10° C | 54% | 1032 hPa | - | - | - | - |
| 1777364103 | 9.44° C | 60% | 1032 hPa | - | - | - | - |
| 1777363802 | 9.44° C | 60% | 1032 hPa | - | - | - | - |
| 1777363502 | 8.33° C | 61% | 1032 hPa | - | - | - | - |
| 1777363202 | 8.33° C | 61% | 1032 hPa | - | - | - | - |
| 1777362901 | 7.78° C | 64% | 1032 hPa | - | - | - | - |
| 1777362601 | 7.78° C | 64% | 1032 hPa | - | - | - | - |
| 1777362301 | 6.67° C | 66% | 1032 hPa | - | - | - | - |
| 1777362000 | 6.67° C | 66% | 1032 hPa | - | - | - | - |
| 1777361705 | 6.11° C | 66% | 1032 hPa | - | - | - | - |
| 1777361405 | 6.11° C | 66% | 1032 hPa | - | - | - | - |
| 1777361104 | 6.11° C | 67% | 1032 hPa | - | - | - | - |
| 1777360804 | 6.11° C | 67% | 1032 hPa | - | - | - | - |
| 1777360503 | 5.56° C | 68% | 1032 hPa | - | - | - | - |
| 1777360203 | 5.56° C | 68% | 1032 hPa | - | - | - | - |
| 1777359903 | 5.56° C | 70% | 1032 hPa | - | - | - | - |
| 1777359602 | 5.56° C | 70% | 1032 hPa | - | - | - | - |
* Rain since midnight (hover to see other rain measurements)
** Current wind speed in m/s (hover to see current wind gust speed)